MLA2291 LZZI-LKMT
Flight info
| Callsign | MLA2291 |
|---|---|
| Flight time | 0h 27m |
| Altitude | 8000 |
| Route | BILNA2T BILNA BILNA4W |
| Aircraft | C208/L-V/N |
Departure
| Time | 2026-04-17 21:45 |
|---|---|
| Airport | Žilina-Dolný Hričov Airport (LZZI) |
Arrival
| Time | 2026-04-17 22:13 |
|---|---|
| Airport | Leoš Janáček Airport Ostrava (LKMT) |
| Time | Latitude | Longitude | Altitude | Speed | Heading |
|---|---|---|---|---|---|
| 2026-04-17 21:31 | 49.23242 | 18.61550 | 1022 ft | 0 kts | 298° |
| 2026-04-17 21:41 | 49.23249 | 18.61527 | 1022 ft | 7 kts | 301° |
| 2026-04-17 21:41 | 49.23298 | 18.61479 | 1022 ft | 10 kts | 335° |
| 2026-04-17 21:41 | 49.23350 | 18.61386 | 1024 ft | 10 kts | 246° |
| 2026-04-17 21:42 | 49.23316 | 18.61279 | 1025 ft | 12 kts | 243° |
| 2026-04-17 21:42 | 49.23274 | 18.61151 | 1024 ft | 15 kts | 240° |
| 2026-04-17 21:42 | 49.23244 | 18.61052 | 1024 ft | 16 kts | 246° |
| 2026-04-17 21:42 | 49.23199 | 18.60893 | 1022 ft | 17 kts | 243° |
| 2026-04-17 21:43 | 49.23143 | 18.60739 | 1022 ft | 13 kts | 236° |
| 2026-04-17 21:43 | 49.23125 | 18.60665 | 1022 ft | 0 kts | 336° |
| 2026-04-17 21:43 | 49.23137 | 18.60669 | 1022 ft | 6 kts | 38° |
| 2026-04-17 21:43 | 49.23146 | 18.60716 | 1022 ft | 0 kts | 62° |
| 2026-04-17 21:44 | 49.23175 | 18.60808 | 1022 ft | 46 kts | 66° |
| 2026-04-17 21:44 | 49.23432 | 18.61633 | 1065 ft | 112 kts | 63° |
| 2026-04-17 21:45 | 49.23792 | 18.62763 | 1281 ft | 121 kts | 64° |
| 2026-04-17 21:45 | 49.24172 | 18.64000 | 1458 ft | 137 kts | 64° |
| 2026-04-17 21:45 | 49.24587 | 18.65358 | 1682 ft | 144 kts | 64° |
| 2026-04-17 21:45 | 49.25011 | 18.66769 | 1910 ft | 147 kts | 64° |
| 2026-04-17 21:46 | 49.25437 | 18.68202 | 2144 ft | 149 kts | 63° |
| 2026-04-17 21:46 | 49.25843 | 18.69654 | 2374 ft | 147 kts | 65° |
| 2026-04-17 21:46 | 49.26240 | 18.71101 | 2601 ft | 147 kts | 64° |
| 2026-04-17 21:46 | 49.26629 | 18.72546 | 2825 ft | 146 kts | 60° |
| 2026-04-17 21:47 | 49.27364 | 18.73454 | 3049 ft | 141 kts | 12° |
| 2026-04-17 21:47 | 49.28289 | 18.73020 | 3284 ft | 149 kts | 324° |
| 2026-04-17 21:47 | 49.28783 | 18.71586 | 3518 ft | 164 kts | 276° |
| 2026-04-17 21:47 | 49.28922 | 18.69868 | 3720 ft | 164 kts | 296° |
| 2026-04-17 21:48 | 49.29768 | 18.68747 | 3899 ft | 168 kts | 344° |
| 2026-04-17 21:48 | 49.30926 | 18.68463 | 4087 ft | 170 kts | 353° |
| 2026-04-17 21:48 | 49.31936 | 18.67887 | 4257 ft | 176 kts | 328° |
| 2026-04-17 21:48 | 49.32759 | 18.66545 | 4445 ft | 170 kts | 298° |
| 2026-04-17 21:49 | 49.33146 | 18.64875 | 4623 ft | 163 kts | 274° |
| 2026-04-17 21:49 | 49.33066 | 18.63197 | 4804 ft | 155 kts | 252° |
| 2026-04-17 21:49 | 49.32650 | 18.61715 | 4993 ft | 149 kts | 242° |
| 2026-04-17 21:49 | 49.32335 | 18.60226 | 5146 ft | 151 kts | 262° |
| 2026-04-17 21:50 | 49.32391 | 18.58629 | 5308 ft | 151 kts | 281° |
| 2026-04-17 21:50 | 49.32797 | 18.57164 | 5485 ft | 149 kts | 301° |
| 2026-04-17 21:50 | 49.33443 | 18.55925 | 5651 ft | 147 kts | 309° |
| 2026-04-17 21:50 | 49.34078 | 18.54710 | 5837 ft | 146 kts | 310° |
| 2026-04-17 21:51 | 49.34715 | 18.53493 | 5993 ft | 146 kts | 311° |
| 2026-04-17 21:51 | 49.35350 | 18.52281 | 6173 ft | 146 kts | 312° |
| 2026-04-17 21:51 | 49.35997 | 18.51079 | 6344 ft | 147 kts | 312° |
| 2026-04-17 21:51 | 49.36637 | 18.49863 | 6531 ft | 147 kts | 311° |
| 2026-04-17 21:52 | 49.37280 | 18.48628 | 6702 ft | 148 kts | 311° |
| 2026-04-17 21:52 | 49.37930 | 18.47405 | 6878 ft | 148 kts | 311° |
| 2026-04-17 21:52 | 49.38573 | 18.46180 | 7043 ft | 147 kts | 311° |
| 2026-04-17 21:52 | 49.39214 | 18.44959 | 7217 ft | 147 kts | 313° |
| 2026-04-17 21:53 | 49.39991 | 18.43998 | 7381 ft | 145 kts | 327° |
| 2026-04-17 21:53 | 49.40812 | 18.43104 | 7553 ft | 144 kts | 325° |
| 2026-04-17 21:53 | 49.41620 | 18.42204 | 7724 ft | 143 kts | 324° |
| 2026-04-17 21:53 | 49.42422 | 18.41313 | 7902 ft | 143 kts | 325° |
| 2026-04-17 21:54 | 49.43232 | 18.40415 | 8005 ft | 146 kts | 325° |
| 2026-04-17 21:54 | 49.44074 | 18.39488 | 8011 ft | 151 kts | 325° |
| 2026-04-17 21:54 | 49.44938 | 18.38538 | 8017 ft | 155 kts | 325° |
| 2026-04-17 21:54 | 49.45824 | 18.37560 | 7961 ft | 158 kts | 325° |
| 2026-04-17 21:55 | 49.46727 | 18.36563 | 7824 ft | 162 kts | 326° |
| 2026-04-17 21:55 | 49.47654 | 18.35544 | 7600 ft | 165 kts | 326° |
| 2026-04-17 21:55 | 49.48592 | 18.34509 | 7376 ft | 167 kts | 326° |
| 2026-04-17 21:55 | 49.49538 | 18.33460 | 7157 ft | 169 kts | 326° |
| 2026-04-17 21:56 | 49.50488 | 18.32403 | 6935 ft | 168 kts | 326° |
| 2026-04-17 21:56 | 49.51439 | 18.31352 | 6711 ft | 168 kts | 326° |
| 2026-04-17 21:56 | 49.52385 | 18.30304 | 6485 ft | 166 kts | 326° |
| 2026-04-17 21:56 | 49.53312 | 18.29269 | 6252 ft | 162 kts | 326° |
| 2026-04-17 21:57 | 49.54209 | 18.28247 | 6019 ft | 158 kts | 325° |
| 2026-04-17 21:57 | 49.55084 | 18.27281 | 5794 ft | 156 kts | 325° |
| 2026-04-17 21:57 | 49.55962 | 18.26311 | 5568 ft | 154 kts | 324° |
| 2026-04-17 21:57 | 49.56828 | 18.25344 | 5344 ft | 153 kts | 322° |
| 2026-04-17 21:58 | 49.57689 | 18.24384 | 5121 ft | 153 kts | 320° |
| 2026-04-17 21:58 | 49.58477 | 18.23308 | 4886 ft | 150 kts | 298° |
| 2026-04-17 21:58 | 49.58620 | 18.21771 | 4658 ft | 147 kts | 258° |
| 2026-04-17 21:58 | 49.58226 | 18.20362 | 4532 ft | 139 kts | 233° |
| 2026-04-17 21:59 | 49.57694 | 18.19110 | 4531 ft | 140 kts | 235° |
| 2026-04-17 21:59 | 49.57197 | 18.17812 | 4528 ft | 141 kts | 235° |
| 2026-04-17 21:59 | 49.56700 | 18.16501 | 4534 ft | 144 kts | 235° |
| 2026-04-17 21:59 | 49.56200 | 18.15173 | 4525 ft | 146 kts | 233° |
| 2026-04-17 22:00 | 49.55701 | 18.13835 | 4520 ft | 139 kts | 233° |
| 2026-04-17 22:00 | 49.55224 | 18.12566 | 4519 ft | 139 kts | 233° |
| 2026-04-17 22:00 | 49.54737 | 18.11265 | 4518 ft | 137 kts | 233° |
| 2026-04-17 22:00 | 49.54271 | 18.10013 | 4520 ft | 137 kts | 233° |
| 2026-04-17 22:01 | 49.53791 | 18.08733 | 4524 ft | 139 kts | 234° |
| 2026-04-17 22:01 | 49.53306 | 18.07444 | 4519 ft | 139 kts | 233° |
| 2026-04-17 22:01 | 49.52784 | 18.06221 | 4522 ft | 134 kts | 220° |
| 2026-04-17 22:01 | 49.52124 | 18.05228 | 4518 ft | 132 kts | 220° |
| 2026-04-17 22:02 | 49.51513 | 18.04224 | 4518 ft | 125 kts | 222° |
| 2026-04-17 22:02 | 49.50925 | 18.03251 | 4559 ft | 120 kts | 221° |
| 2026-04-17 22:02 | 49.50353 | 18.02332 | 4533 ft | 120 kts | 220° |
| 2026-04-17 22:02 | 49.49782 | 18.01415 | 4530 ft | 115 kts | 220° |
| 2026-04-17 22:03 | 49.49223 | 18.00523 | 4515 ft | 115 kts | 219° |
| 2026-04-17 22:03 | 49.48680 | 17.99656 | 4514 ft | 114 kts | 220° |
| 2026-04-17 22:03 | 49.48179 | 17.98692 | 4505 ft | 118 kts | 235° |
| 2026-04-17 22:03 | 49.47977 | 17.97447 | 4504 ft | 126 kts | 259° |
| 2026-04-17 22:04 | 49.48163 | 17.96086 | 4491 ft | 137 kts | 288° |
| 2026-04-17 22:04 | 49.48781 | 17.94925 | 4492 ft | 143 kts | 312° |
| 2026-04-17 22:04 | 49.49505 | 17.93893 | 4497 ft | 142 kts | 310° |
| 2026-04-17 22:04 | 49.50227 | 17.92819 | 4475 ft | 146 kts | 310° |
| 2026-04-17 22:05 | 49.50976 | 17.91713 | 4402 ft | 152 kts | 312° |
| 2026-04-17 22:05 | 49.51748 | 17.90590 | 4312 ft | 154 kts | 313° |
| 2026-04-17 22:05 | 49.52521 | 17.89446 | 4212 ft | 155 kts | 313° |
| 2026-04-17 22:05 | 49.53349 | 17.88381 | 4095 ft | 156 kts | 333° |
| 2026-04-17 22:06 | 49.54360 | 17.88022 | 3988 ft | 147 kts | 4° |
| 2026-04-17 22:06 | 49.55316 | 17.88353 | 3890 ft | 137 kts | 31° |
| 2026-04-17 22:06 | 49.56042 | 17.89196 | 3809 ft | 127 kts | 53° |
| 2026-04-17 22:06 | 49.56638 | 17.90178 | 3726 ft | 122 kts | 51° |
| 2026-04-17 22:07 | 49.57223 | 17.91111 | 3655 ft | 120 kts | 51° |
| 2026-04-17 22:07 | 49.57801 | 17.92038 | 3570 ft | 118 kts | 49° |
| 2026-04-17 22:07 | 49.58358 | 17.92936 | 3490 ft | 114 kts | 49° |
| 2026-04-17 22:07 | 49.58902 | 17.93805 | 3424 ft | 112 kts | 47° |
| 2026-04-17 22:08 | 49.59444 | 17.94679 | 3357 ft | 111 kts | 47° |
| 2026-04-17 22:08 | 49.59985 | 17.95544 | 3245 ft | 113 kts | 45° |
| 2026-04-17 22:08 | 49.60531 | 17.96420 | 3093 ft | 112 kts | 43° |
| 2026-04-17 22:08 | 49.61049 | 17.97264 | 2933 ft | 105 kts | 41° |
| 2026-04-17 22:09 | 49.61542 | 17.98053 | 2802 ft | 99 kts | 43° |
| 2026-04-17 22:09 | 49.62015 | 17.98812 | 2674 ft | 98 kts | 46° |
| 2026-04-17 22:09 | 49.62473 | 17.99544 | 2545 ft | 95 kts | 47° |
| 2026-04-17 22:09 | 49.62935 | 18.00264 | 2417 ft | 94 kts | 49° |
| 2026-04-17 22:10 | 49.63387 | 18.00991 | 2292 ft | 94 kts | 52° |
| 2026-04-17 22:10 | 49.63854 | 18.01753 | 2172 ft | 101 kts | 51° |
| 2026-04-17 22:10 | 49.64366 | 18.02576 | 2046 ft | 110 kts | 49° |
| 2026-04-17 22:10 | 49.64912 | 18.03450 | 1892 ft | 116 kts | 46° |
| 2026-04-17 22:11 | 49.65466 | 18.04348 | 1742 ft | 115 kts | 44° |
| 2026-04-17 22:11 | 49.66017 | 18.05247 | 1588 ft | 114 kts | 44° |
| 2026-04-17 22:11 | 49.66561 | 18.06129 | 1429 ft | 112 kts | 43° |
| 2026-04-17 22:11 | 49.67082 | 18.06958 | 1276 ft | 104 kts | 43° |
| 2026-04-17 22:12 | 49.67575 | 18.07741 | 1134 ft | 99 kts | 44° |
| 2026-04-17 22:12 | 49.68047 | 18.08503 | 1002 ft | 97 kts | 44° |
| 2026-04-17 22:12 | 49.68491 | 18.09255 | 886 ft | 90 kts | 46° |
| 2026-04-17 22:12 | 49.68886 | 18.09904 | 830 ft | 75 kts | 45° |
| 2026-04-17 22:13 | 49.69130 | 18.10286 | 829 ft | 27 kts | 48° |
| 2026-04-17 22:13 | 49.69220 | 18.10436 | 830 ft | 17 kts | 51° |
| 2026-04-17 22:13 | 49.69301 | 18.10568 | 829 ft | 18 kts | 45° |
| 2026-04-17 22:13 | 49.69387 | 18.10708 | 828 ft | 18 kts | 45° |
| 2026-04-17 22:14 | 49.69476 | 18.10852 | 827 ft | 19 kts | 45° |
| 2026-04-17 22:14 | 49.69572 | 18.10997 | 828 ft | 18 kts | 49° |
| 2026-04-17 22:14 | 49.69574 | 18.11151 | 826 ft | 17 kts | 133° |